createdAt,value
2019-02-14T00:02:09.056Z,4.87
2019-02-14T00:04:38.879Z,4.93
2019-02-14T00:07:08.731Z,4.95
2019-02-14T00:09:38.367Z,5.01
2019-02-14T00:12:09.059Z,5.06
2019-02-14T00:14:38.683Z,5.12
2019-02-14T00:17:08.869Z,5.13
2019-02-14T00:19:38.527Z,5.13
2019-02-14T00:22:11.052Z,5.12
2019-02-14T00:24:41.599Z,5.12
2019-02-14T00:27:11.400Z,5.13
2019-02-14T00:29:41.964Z,5.13
2019-02-14T00:32:11.584Z,5.17
2019-02-14T00:34:41.913Z,5.21
2019-02-14T00:37:12.574Z,5.25
2019-02-14T00:39:43.758Z,5.26
2019-02-14T00:42:13.445Z,5.30
2019-02-14T00:44:43.397Z,5.34
2019-02-14T00:47:13.092Z,5.35
2019-02-14T00:49:42.758Z,5.35
2019-02-14T00:52:12.897Z,5.37
2019-02-14T00:54:42.698Z,5.36
2019-02-14T00:57:12.635Z,5.35
2019-02-14T00:59:42.442Z,5.35
2019-02-14T01:02:12.330Z,5.36
2019-02-14T01:04:42.611Z,5.36
2019-02-14T01:07:12.425Z,5.36
2019-02-14T01:09:42.051Z,5.35
2019-02-14T01:12:12.248Z,5.35
2019-02-14T01:14:42.239Z,5.38
2019-02-14T01:17:11.858Z,5.37
2019-02-14T01:19:41.838Z,5.40
2019-02-14T01:22:11.576Z,5.42
2019-02-14T01:24:41.542Z,5.41
2019-02-14T01:27:12.585Z,5.43
2019-02-14T01:29:45.330Z,5.45
2019-02-14T01:32:14.968Z,5.45
2019-02-14T01:34:44.746Z,5.48
2019-02-14T01:37:14.531Z,5.50
2019-02-14T01:39:44.274Z,5.55
2019-02-14T01:42:13.984Z,5.53
2019-02-14T01:44:43.613Z,5.54
2019-02-14T01:47:15.250Z,5.56
2019-02-14T01:49:45.340Z,5.61
2019-02-14T01:52:15.095Z,5.66
2019-02-14T01:54:45.102Z,5.70
2019-02-14T01:57:14.954Z,5.71
2019-02-14T01:59:44.734Z,5.77
2019-02-14T02:02:15.327Z,5.83
2019-02-14T02:04:45.840Z,5.86
2019-02-14T02:07:15.464Z,5.90
2019-02-14T02:09:45.200Z,5.94
2019-02-14T02:12:15.966Z,5.96
2019-02-14T02:14:46.428Z,6.00
2019-02-14T02:17:17.820Z,6.04
2019-02-14T02:19:48.569Z,6.06
2019-02-14T02:22:18.381Z,6.08
2019-02-14T02:24:48.631Z,6.09
2019-02-14T02:27:18.757Z,6.14
2019-02-14T02:29:48.501Z,6.14
2019-02-14T02:32:19.222Z,6.15
2019-02-14T02:34:50.465Z,6.17
2019-02-14T02:37:21.199Z,6.21
2019-02-14T02:39:50.941Z,6.23
2019-02-14T02:42:20.627Z,6.26
2019-02-14T02:44:50.609Z,6.27
2019-02-14T02:47:20.230Z,6.26
2019-02-14T02:49:49.887Z,6.29
2019-02-14T02:52:19.678Z,6.31
2019-02-14T02:54:49.317Z,6.32
2019-02-14T02:57:18.963Z,6.35
2019-02-14T02:59:48.584Z,6.40
2019-02-14T03:02:19.682Z,6.41
2019-02-14T03:04:49.500Z,6.41
2019-02-14T03:07:19.186Z,6.39
2019-02-14T03:09:49.408Z,6.38
2019-02-14T03:12:19.187Z,6.36
2019-02-14T03:14:49.987Z,6.38
2019-02-14T03:17:19.740Z,6.42
2019-02-14T03:19:49.430Z,6.45
2019-02-14T03:22:19.337Z,6.45
2019-02-14T03:24:49.692Z,6.48
2019-02-14T03:27:19.625Z,6.49
2019-02-14T03:29:49.371Z,6.51
2019-02-14T03:32:19.122Z,6.52
2019-02-14T03:34:48.811Z,6.56
2019-02-14T03:37:18.613Z,6.60
2019-02-14T03:39:48.346Z,6.60
2019-02-14T03:42:18.693Z,6.58
2019-02-14T03:44:48.582Z,6.60
2019-02-14T03:47:18.313Z,6.59
2019-02-14T03:49:49.504Z,6.56
2019-02-14T03:52:19.294Z,6.57
2019-02-14T03:54:49.265Z,6.56
2019-02-14T03:57:18.969Z,6.54
2019-02-14T03:59:48.623Z,6.54
2019-02-14T04:02:18.216Z,6.54
2019-02-14T04:04:48.363Z,6.50
2019-02-14T04:07:18.573Z,6.49
2019-02-14T04:09:48.873Z,6.51
2019-02-14T04:12:19.299Z,6.56
2019-02-14T04:14:49.040Z,6.55
2019-02-14T04:17:18.661Z,6.56
2019-02-14T04:19:48.353Z,6.60
2019-02-14T04:22:18.347Z,6.60
2019-02-14T04:24:48.091Z,6.59
2019-02-14T04:27:18.431Z,6.60
2019-02-14T04:29:48.065Z,6.63
2019-02-14T04:32:18.015Z,6.63
2019-02-14T04:34:47.666Z,6.62
2019-02-14T04:37:17.422Z,6.64
2019-02-14T04:39:47.042Z,6.65
2019-02-14T04:42:16.905Z,6.67
2019-02-14T04:44:46.669Z,6.69
2019-02-14T04:47:16.606Z,6.72
2019-02-14T04:49:46.536Z,6.72
2019-02-14T04:52:18.273Z,6.71
2019-02-14T04:54:48.771Z,6.68
2019-02-14T04:57:18.462Z,6.67
2019-02-14T04:59:48.451Z,6.65
2019-02-14T05:02:18.341Z,6.58
2019-02-14T05:04:48.083Z,6.52
2019-02-14T05:07:17.811Z,6.45
2019-02-14T05:09:47.526Z,6.41
2019-02-14T05:12:17.974Z,6.37
2019-02-14T05:14:47.618Z,6.32
2019-02-14T05:17:17.363Z,6.27
2019-02-14T05:19:47.024Z,6.24
2019-02-14T05:22:16.992Z,6.26
2019-02-14T05:24:48.282Z,6.27
2019-02-14T05:27:18.382Z,6.27
2019-02-14T05:29:48.394Z,6.25
2019-02-14T05:32:18.371Z,6.26
2019-02-14T05:34:48.923Z,6.29
2019-02-14T05:37:19.224Z,6.35
2019-02-14T05:39:48.905Z,6.33
2019-02-14T05:42:18.710Z,6.30
2019-02-14T05:44:48.907Z,6.27
2019-02-14T05:47:19.438Z,6.27
2019-02-14T05:49:49.186Z,6.29
2019-02-14T05:52:19.106Z,6.38
2019-02-14T05:54:48.737Z,6.43
2019-02-14T05:57:19.194Z,6.41
2019-02-14T05:59:48.932Z,6.39
2019-02-14T06:02:19.541Z,6.44
2019-02-14T06:04:49.369Z,6.48
2019-02-14T06:07:20.479Z,6.53
2019-02-14T06:09:51.184Z,6.58
2019-02-14T06:12:21.162Z,6.62
2019-02-14T06:14:51.572Z,6.69
2019-02-14T06:17:22.273Z,6.79
2019-02-14T06:19:51.939Z,6.84
2019-02-14T06:22:21.628Z,6.86
2019-02-14T06:24:51.272Z,6.90
2019-02-14T06:27:21.268Z,6.94
2019-02-14T06:29:51.565Z,6.96
2019-02-14T06:32:21.035Z,7.01
2019-02-14T06:34:50.885Z,7.00
2019-02-14T06:37:20.522Z,6.93
2019-02-14T06:39:51.589Z,6.88
2019-02-14T06:42:22.042Z,6.88
2019-02-14T06:44:52.198Z,6.89
2019-02-14T06:47:22.889Z,6.84
2019-02-14T06:49:54.032Z,6.81
2019-02-14T06:52:23.668Z,6.91
2019-02-14T06:54:53.408Z,7.00
2019-02-14T06:57:23.112Z,7.04
2019-02-14T06:59:54.637Z,7.09
2019-02-14T07:02:24.456Z,7.17
2019-02-14T07:04:54.110Z,7.19
2019-02-14T07:07:24.117Z,7.18
2019-02-14T07:09:54.410Z,7.22
2019-02-14T07:12:24.967Z,7.23
2019-02-14T07:14:54.755Z,7.22
2019-02-14T07:17:25.452Z,7.19
2019-02-14T07:19:55.229Z,7.16
2019-02-14T07:22:25.525Z,7.19
2019-02-14T07:24:55.552Z,7.19
2019-02-14T07:27:25.392Z,7.17
2019-02-14T07:29:55.799Z,7.22
2019-02-14T07:32:26.286Z,7.23
2019-02-14T07:34:57.302Z,7.26
2019-02-14T07:37:27.206Z,7.32
2019-02-14T07:39:56.890Z,7.34
2019-02-14T07:42:26.579Z,7.37
2019-02-14T07:44:56.204Z,7.35
2019-02-14T07:47:26.167Z,7.40
2019-02-14T07:49:57.472Z,7.45
2019-02-14T07:52:27.235Z,7.54
2019-02-14T07:54:57.007Z,7.61
2019-02-14T07:57:26.696Z,7.63
2019-02-14T07:59:56.301Z,7.68
2019-02-14T08:02:26.697Z,7.66
2019-02-14T08:04:56.363Z,7.71
2019-02-14T08:07:26.259Z,7.76
2019-02-14T08:09:55.867Z,7.79
2019-02-14T08:12:25.705Z,7.78
2019-02-14T08:14:55.323Z,7.68
2019-02-14T08:17:25.850Z,7.62
2019-02-14T08:19:55.871Z,7.67
2019-02-14T08:22:27.244Z,7.78
2019-02-14T08:24:57.016Z,7.80
2019-02-14T08:27:27.010Z,7.79
2019-02-14T08:29:57.126Z,7.77
2019-02-14T08:32:26.771Z,7.78
2019-02-14T08:34:56.465Z,7.78
2019-02-14T08:37:26.087Z,7.76
2019-02-14T08:39:55.776Z,7.77
2019-02-14T08:42:25.917Z,7.77
2019-02-14T08:44:56.104Z,7.72
2019-02-14T08:47:26.265Z,7.76
2019-02-14T08:49:56.027Z,7.79
2019-02-14T08:52:25.961Z,7.84
2019-02-14T08:54:56.132Z,7.89
2019-02-14T08:57:26.948Z,7.91
2019-02-14T08:59:56.863Z,7.85
2019-02-14T09:02:26.645Z,7.89
2019-02-14T09:04:57.233Z,7.87
2019-02-14T09:07:27.177Z,7.92
2019-02-14T09:09:56.754Z,8.02
2019-02-14T09:12:26.594Z,8.12
2019-02-14T09:14:56.305Z,8.18
2019-02-14T09:17:26.287Z,8.14
2019-02-14T09:19:56.035Z,8.20
2019-02-14T09:22:25.667Z,8.20
2019-02-14T09:24:55.287Z,8.14
2019-02-14T09:27:24.987Z,8.18
2019-02-14T09:29:54.602Z,8.16
2019-02-14T09:32:25.952Z,8.18
2019-02-14T09:34:55.732Z,8.13
2019-02-14T09:37:26.151Z,8.10
2019-02-14T09:39:55.796Z,8.14
2019-02-14T09:42:26.151Z,8.10
2019-02-14T09:44:56.430Z,8.15
2019-02-14T09:47:27.115Z,8.17
2019-02-14T09:49:57.009Z,8.20
2019-02-14T09:52:27.741Z,8.21
2019-02-14T09:54:57.361Z,8.22
2019-02-14T09:57:27.058Z,8.25
2019-02-14T09:59:56.744Z,8.28
2019-02-14T10:02:26.414Z,8.28
2019-02-14T10:04:56.337Z,8.26
2019-02-14T10:07:26.864Z,8.27
2019-02-14T10:09:57.616Z,8.28
2019-02-14T10:12:27.579Z,8.31
2019-02-14T10:14:57.287Z,8.36
2019-02-14T10:17:27.210Z,8.36
2019-02-14T10:19:57.571Z,8.40
2019-02-14T10:22:27.520Z,8.38
2019-02-14T10:24:58.019Z,8.39
2019-02-14T10:27:33.514Z,8.36
2019-02-14T10:30:06.329Z,8.37
2019-02-14T10:32:36.844Z,8.35
2019-02-14T10:35:15.635Z,8.43
2019-02-14T10:37:47.262Z,8.40
2019-02-14T10:40:18.750Z,8.39
2019-02-14T10:42:51.471Z,8.37
2019-02-14T10:45:26.025Z,8.37
2019-02-14T10:47:57.476Z,8.32
2019-02-14T10:50:28.430Z,8.30
2019-02-14T10:53:00.143Z,8.25
2019-02-14T10:55:29.892Z,8.17
2019-02-14T10:57:59.593Z,8.12
2019-02-14T11:00:30.467Z,8.08
2019-02-14T11:03:00.342Z,7.99
2019-02-14T11:05:30.553Z,8.06
2019-02-14T11:08:00.388Z,8.07
2019-02-14T11:10:30.810Z,8.00
2019-02-14T11:13:02.976Z,7.92
2019-02-14T11:15:33.744Z,7.86
2019-02-14T11:18:03.654Z,7.90
2019-02-14T11:20:33.971Z,7.91
2019-02-14T11:23:03.798Z,7.92
2019-02-14T11:25:35.753Z,7.92
2019-02-14T11:28:06.213Z,7.85
2019-02-14T11:30:36.262Z,7.81
2019-02-14T11:33:06.591Z,7.80
2019-02-14T11:35:36.539Z,7.76
2019-02-14T11:38:06.315Z,7.76
2019-02-14T11:40:36.536Z,7.73
2019-02-14T11:43:06.245Z,7.74
2019-02-14T11:45:35.958Z,7.73
2019-02-14T11:48:09.051Z,7.75
2019-02-14T11:50:38.808Z,7.75
2019-02-14T11:53:14.205Z,7.76
2019-02-14T11:55:43.691Z,7.85
2019-02-14T11:58:13.322Z,7.94
2019-02-14T12:00:43.749Z,7.96
2019-02-14T12:03:13.384Z,7.94
2019-02-14T12:05:43.488Z,7.89
2019-02-14T12:08:13.145Z,7.87
2019-02-14T12:10:43.111Z,7.90
2019-02-14T12:13:13.212Z,7.94
2019-02-14T12:15:43.591Z,8.03
2019-02-14T12:18:13.692Z,8.10
2019-02-14T12:20:45.322Z,8.28
2019-02-14T12:23:15.023Z,8.40
2019-02-14T12:25:45.257Z,8.43
2019-02-14T12:28:14.968Z,8.42
2019-02-14T12:30:45.075Z,8.47
2019-02-14T12:33:15.094Z,8.48
2019-02-14T12:35:46.294Z,8.49
2019-02-14T12:38:17.392Z,8.35
2019-02-14T12:40:47.391Z,8.31
2019-02-14T12:43:17.213Z,8.35
2019-02-14T12:45:47.203Z,8.25
2019-02-14T12:48:17.175Z,8.14
2019-02-14T12:50:48.881Z,8.06
2019-02-14T12:53:19.430Z,8.00
2019-02-14T12:55:49.138Z,8.00
2019-02-14T12:58:21.677Z,7.95
2019-02-14T13:00:52.373Z,7.93
2019-02-14T13:03:23.060Z,7.93
2019-02-14T13:05:56.383Z,7.96
2019-02-14T13:08:29.996Z,7.96
2019-02-14T13:11:01.484Z,7.96
2019-02-14T13:13:33.514Z,8.01
2019-02-14T13:16:05.283Z,8.03
2019-02-14T13:18:37.330Z,8.03
2019-02-14T13:21:08.952Z,8.03
2019-02-14T13:23:40.329Z,8.00
2019-02-14T13:26:12.922Z,8.01
2019-02-14T13:28:44.120Z,8.04
2019-02-14T13:31:13.861Z,8.02
2019-02-14T13:33:44.474Z,7.99
2019-02-14T13:36:16.436Z,7.92
2019-02-14T13:38:48.807Z,7.92
2019-02-14T13:41:20.214Z,7.94
2019-02-14T13:43:54.067Z,7.99
2019-02-14T13:46:28.107Z,8.04
2019-02-14T13:49:02.397Z,8.10
2019-02-14T13:51:36.087Z,8.11
2019-02-14T13:54:07.181Z,8.12
2019-02-14T13:56:39.830Z,8.11
2019-02-14T13:59:12.120Z,8.06
2019-02-14T14:01:45.208Z,8.00
2019-02-14T14:04:18.007Z,7.99
2019-02-14T14:06:50.940Z,7.97
2019-02-14T14:09:23.158Z,7.94
2019-02-14T14:12:01.040Z,7.87
2019-02-14T14:14:31.745Z,7.82
2019-02-14T14:17:02.818Z,7.80
2019-02-14T14:19:36.441Z,7.72
2019-02-14T14:22:09.274Z,7.69
2019-02-14T14:24:39.849Z,7.68
2019-02-14T14:27:09.475Z,7.69
2019-02-14T14:29:39.953Z,7.70
2019-02-14T14:32:11.344Z,7.73
2019-02-14T14:34:40.983Z,7.76
2019-02-14T14:37:11.049Z,7.81
2019-02-14T14:39:47.554Z,7.81
2019-02-14T14:42:14.635Z,7.83
2019-02-14T14:44:45.811Z,7.86
2019-02-14T14:47:33.920Z,7.89
2019-02-14T14:50:04.519Z,7.95
2019-02-14T14:52:34.222Z,7.96
2019-02-14T14:55:04.897Z,7.94
2019-02-14T14:57:35.075Z,7.96
2019-02-14T15:00:06.719Z,7.94
2019-02-14T15:02:36.521Z,7.91
2019-02-14T15:05:07.135Z,7.94
2019-02-14T15:07:36.897Z,7.95
2019-02-14T15:10:07.829Z,7.90
2019-02-14T15:12:37.498Z,7.87
2019-02-14T15:15:09.836Z,7.88
2019-02-14T15:17:39.581Z,7.83
2019-02-14T15:20:11.797Z,7.78
2019-02-14T15:22:41.434Z,7.73
2019-02-14T15:25:11.190Z,7.74
2019-02-14T15:27:40.880Z,7.74
2019-02-14T15:30:11.641Z,7.74
2019-02-14T15:32:41.387Z,7.84
2019-02-14T15:35:11.162Z,7.83
2019-02-14T15:37:42.486Z,7.75
2019-02-14T15:40:12.872Z,7.70
2019-02-14T15:42:42.684Z,7.66
2019-02-14T15:45:15.124Z,7.62
2019-02-14T15:47:45.370Z,7.63
2019-02-14T15:50:15.032Z,7.62
2019-02-14T15:52:44.658Z,7.65
2019-02-14T15:55:14.289Z,7.63
2019-02-14T15:57:44.764Z,7.59
2019-02-14T16:00:15.547Z,7.55
2019-02-14T16:02:45.465Z,7.53
2019-02-14T16:05:17.351Z,7.52
2019-02-14T16:07:49.551Z,7.47
2019-02-14T16:10:19.197Z,7.47
2019-02-14T16:12:48.945Z,7.46
2019-02-14T16:15:18.716Z,7.44
2019-02-14T16:17:49.976Z,7.44
2019-02-14T16:20:20.122Z,7.42
2019-02-14T16:22:50.065Z,7.41
2019-02-14T16:25:21.419Z,7.38
2019-02-14T16:27:51.181Z,7.36
2019-02-14T16:30:21.212Z,7.34
2019-02-14T16:32:51.127Z,7.32
2019-02-14T16:35:21.087Z,7.29
2019-02-14T16:37:50.835Z,7.27
2019-02-14T16:40:27.649Z,7.27
2019-02-14T16:42:54.539Z,7.32
2019-02-14T16:45:24.302Z,7.28
2019-02-14T16:47:53.947Z,7.25
2019-02-14T16:50:23.735Z,7.21
2019-02-14T16:52:53.383Z,7.19
2019-02-14T16:55:23.945Z,7.16
2019-02-14T16:57:53.640Z,7.14
2019-02-14T17:00:23.245Z,7.16
2019-02-14T17:02:52.926Z,7.16
2019-02-14T17:05:23.954Z,7.15
2019-02-14T17:07:56.017Z,7.17
2019-02-14T17:10:27.054Z,7.16
2019-02-14T17:12:56.801Z,7.18
2019-02-14T17:15:26.524Z,7.17
2019-02-14T17:17:57.186Z,7.21
2019-02-14T17:20:27.001Z,7.24
2019-02-14T17:22:56.690Z,7.28
2019-02-14T17:25:26.329Z,7.26
2019-02-14T17:27:57.327Z,7.28
2019-02-14T17:30:27.463Z,7.31
2019-02-14T17:32:57.392Z,7.34
2019-02-14T17:35:29.666Z,7.31
2019-02-14T17:40:56.686Z,7.32
2019-02-14T17:43:27.205Z,7.31
2019-02-14T17:45:57.846Z,7.30
2019-02-14T17:48:27.853Z,7.31
2019-02-14T17:50:57.486Z,7.33
2019-02-14T17:53:27.483Z,7.29
2019-02-14T17:55:57.509Z,7.24
2019-02-14T17:58:27.160Z,7.22
2019-02-14T18:00:56.791Z,7.18
2019-02-14T18:03:27.719Z,7.16
2019-02-14T18:05:57.369Z,7.12
2019-02-14T18:08:29.451Z,7.11
2019-02-14T18:10:59.196Z,7.11
2019-02-14T18:13:29.286Z,7.13
2019-02-14T18:15:58.942Z,7.14
2019-02-14T18:18:29.563Z,7.17
2019-02-14T18:21:00.255Z,7.16
2019-02-14T18:23:29.890Z,7.14
2019-02-14T18:25:59.627Z,7.15
2019-02-14T18:28:30.415Z,7.11
2019-02-14T18:31:00.560Z,7.11
2019-02-14T18:33:30.400Z,7.15
2019-02-14T18:36:00.041Z,7.19
2019-02-14T18:38:30.400Z,7.20
2019-02-14T18:41:04.105Z,7.21
2019-02-14T18:43:31.459Z,7.19
2019-02-14T18:46:01.172Z,7.19
2019-02-14T18:48:30.899Z,7.18
2019-02-14T18:51:01.122Z,7.19
2019-02-14T18:53:31.896Z,7.15
2019-02-14T18:56:01.682Z,7.18
2019-02-14T18:58:32.950Z,7.19
2019-02-14T19:01:02.696Z,7.29
2019-02-14T19:03:32.629Z,7.32
2019-02-14T19:06:03.676Z,7.26
2019-02-14T19:08:33.317Z,7.21
2019-02-14T19:11:03.395Z,7.17
2019-02-14T19:13:33.656Z,7.15
2019-02-14T19:16:03.288Z,7.14
2019-02-14T19:18:33.007Z,7.14
2019-02-14T19:21:02.810Z,7.11
2019-02-14T19:23:32.513Z,7.11
2019-02-14T19:26:02.446Z,7.11
2019-02-14T19:28:35.094Z,7.08
2019-02-14T19:31:11.097Z,7.06
2019-02-14T19:33:45.626Z,7.05
2019-02-14T19:40:17.354Z,7.10
2019-02-14T19:42:47.138Z,7.13
2019-02-14T19:49:05.744Z,7.20
2019-02-14T19:51:35.678Z,7.28
2019-02-14T19:54:06.467Z,7.28
2019-02-14T19:56:37.371Z,7.26
2019-02-14T19:59:07.105Z,7.33
2019-02-14T20:01:37.508Z,7.38
2019-02-14T20:04:07.314Z,7.36
2019-02-14T20:06:37.179Z,7.33
2019-02-14T20:09:07.177Z,7.29
2019-02-14T20:11:39.215Z,7.24
2019-02-14T20:14:09.262Z,7.20
2019-02-14T20:16:40.440Z,7.18
2019-02-14T20:19:13.411Z,7.20
2019-02-14T20:21:45.540Z,7.18
2019-02-14T20:24:15.635Z,7.17
2019-02-14T20:26:45.275Z,7.16
2019-02-14T20:29:15.041Z,7.14
2019-02-14T20:31:44.651Z,7.11
2019-02-14T20:34:17.389Z,7.10
2019-02-14T20:36:48.013Z,7.10
2019-02-14T20:39:17.641Z,7.09
2019-02-14T20:41:47.401Z,7.15
2019-02-14T20:44:17.139Z,7.29
2019-02-14T20:46:46.963Z,7.35
2019-02-14T20:49:17.123Z,7.35
2019-02-14T20:51:46.862Z,7.36
2019-02-14T20:54:16.501Z,7.38
2019-02-14T20:56:46.743Z,7.36
2019-02-14T20:59:17.804Z,7.37
2019-02-14T21:01:47.729Z,7.37
2019-02-14T21:04:22.149Z,7.38
2019-02-14T21:06:53.329Z,7.42
2019-02-14T21:09:23.030Z,7.45
2019-02-14T21:11:55.542Z,7.45
2019-02-14T21:14:25.260Z,7.46
2019-02-14T21:16:54.879Z,7.44
2019-02-14T21:19:26.515Z,7.40
2019-02-14T21:22:01.597Z,7.37
2019-02-14T21:24:30.429Z,7.35
2019-02-14T21:27:01.338Z,7.34
2019-02-14T21:29:31.029Z,7.39
2019-02-14T21:32:01.375Z,7.37
2019-02-14T21:34:32.233Z,7.38
2019-02-14T21:37:05.003Z,7.44
2019-02-14T21:39:34.725Z,7.45
2019-02-14T21:42:20.058Z,7.44
2019-02-14T21:44:40.211Z,7.41
2019-02-14T21:47:11.532Z,7.36
2019-02-14T21:49:41.194Z,7.39
2019-02-14T21:52:11.152Z,7.33
2019-02-14T21:54:40.791Z,7.29
2019-02-14T21:57:10.772Z,7.31
2019-02-14T21:59:42.507Z,7.34
2019-02-14T22:02:12.135Z,7.34
2019-02-14T22:04:41.829Z,7.32
2019-02-14T22:07:11.530Z,7.26
2019-02-14T22:09:41.763Z,7.17
2019-02-14T22:12:14.041Z,7.10
2019-02-14T22:14:44.938Z,7.09
2019-02-14T22:17:14.544Z,7.10
2019-02-14T22:19:44.168Z,7.11
2019-02-14T22:22:14.204Z,7.05
2019-02-14T22:24:45.504Z,7.02
2019-02-14T22:27:15.149Z,6.98
2019-02-14T22:29:45.108Z,6.94
2019-02-14T22:32:15.554Z,6.94
2019-02-14T22:34:45.193Z,6.91
2019-02-14T22:37:15.142Z,6.88
2019-02-14T22:39:45.432Z,6.82
2019-02-14T22:42:15.221Z,6.79
2019-02-14T22:44:44.916Z,6.72
2019-02-14T22:47:14.912Z,6.66
2019-02-14T22:49:44.546Z,6.60
2019-02-14T22:52:14.887Z,6.53
2019-02-14T22:54:44.682Z,6.49
2019-02-14T22:57:14.695Z,6.45
2019-02-14T22:59:45.198Z,6.45
2019-02-14T23:02:15.858Z,6.49
2019-02-14T23:04:45.615Z,6.44
2019-02-14T23:07:15.866Z,6.40
2019-02-14T23:09:45.494Z,6.37
2019-02-14T23:12:15.120Z,6.39
2019-02-14T23:14:45.371Z,6.36
2019-02-14T23:17:15.006Z,6.30
2019-02-14T23:19:44.632Z,6.26
2019-02-14T23:22:14.884Z,6.20
2019-02-14T23:24:44.520Z,6.15
2019-02-14T23:27:14.398Z,6.12
2019-02-14T23:29:44.384Z,6.12
2019-02-14T23:32:14.092Z,6.06
2019-02-14T23:34:43.716Z,5.98
2019-02-14T23:37:14.337Z,5.98
2019-02-14T23:39:43.970Z,5.99
2019-02-14T23:42:14.170Z,5.98
2019-02-14T23:44:43.981Z,5.98
2019-02-14T23:47:14.305Z,6.00
2019-02-14T23:49:45.109Z,6.04
2019-02-14T23:52:15.153Z,6.09
2019-02-14T23:54:45.165Z,6.04
2019-02-14T23:57:14.793Z,5.98
2019-02-14T23:59:44.489Z,5.96
